createdAt,value
2018-03-03T00:00:22.214Z,989.04
2018-03-03T00:01:22.136Z,989.02
2018-03-03T00:02:22.076Z,989.05
2018-03-03T00:03:22.056Z,988.99
2018-03-03T00:04:22.024Z,989.01
2018-03-03T00:05:21.953Z,989.04
2018-03-03T00:06:21.924Z,989.02
2018-03-03T00:07:21.857Z,988.99
2018-03-03T00:08:21.845Z,989.01
2018-03-03T00:09:21.791Z,988.94
2018-03-03T00:10:21.729Z,988.98
2018-03-03T00:11:21.685Z,988.89
2018-03-03T00:12:21.694Z,988.89
2018-03-03T00:13:21.622Z,988.86
2018-03-03T00:14:21.619Z,988.94
2018-03-03T00:15:21.522Z,988.96
2018-03-03T00:16:21.479Z,988.96
2018-03-03T00:17:21.430Z,988.91
2018-03-03T00:18:21.397Z,988.96
2018-03-03T00:19:21.349Z,988.94
2018-03-03T00:20:21.311Z,988.96
2018-03-03T00:21:21.303Z,988.99
2018-03-03T00:22:21.229Z,988.89
2018-03-03T00:23:21.197Z,988.96
2018-03-03T00:24:21.143Z,988.93
2018-03-03T00:25:21.089Z,988.93
2018-03-03T00:26:21.032Z,989.00
2018-03-03T00:27:21.008Z,988.79
2018-03-03T00:28:20.979Z,988.96
2018-03-03T00:29:20.921Z,988.90
2018-03-03T00:30:20.873Z,988.90
2018-03-03T00:31:20.827Z,988.92
2018-03-03T00:32:20.816Z,988.89
2018-03-03T00:33:20.753Z,988.85
2018-03-03T00:34:20.701Z,988.87
2018-03-03T00:35:20.662Z,988.84
2018-03-03T00:36:20.613Z,988.93
2018-03-03T00:37:20.564Z,988.94
2018-03-03T00:38:20.530Z,988.91
2018-03-03T00:39:20.547Z,988.91
2018-03-03T00:40:20.463Z,988.96
2018-03-03T00:41:20.445Z,988.93
2018-03-03T00:42:20.347Z,988.86
2018-03-03T00:43:20.307Z,988.86
2018-03-03T00:44:20.298Z,988.72
2018-03-03T00:45:20.231Z,988.90
2018-03-03T00:46:20.203Z,988.84
2018-03-03T00:47:20.160Z,988.80
2018-03-03T00:48:20.128Z,988.90
2018-03-03T00:49:20.057Z,988.76
2018-03-03T00:50:20.003Z,988.79
2018-03-03T00:51:19.951Z,988.77
2018-03-03T00:52:19.905Z,988.71
2018-03-03T00:53:19.891Z,988.75
2018-03-03T00:54:19.831Z,988.73
2018-03-03T00:55:19.774Z,988.73
2018-03-03T00:56:19.744Z,988.76
2018-03-03T00:57:19.742Z,988.88
2018-03-03T00:58:19.658Z,988.83
2018-03-03T00:59:19.646Z,988.81
2018-03-03T01:00:19.578Z,988.78
2018-03-03T01:01:19.610Z,988.77
2018-03-03T01:02:19.470Z,988.76
2018-03-03T01:03:19.447Z,988.72
2018-03-03T01:04:19.408Z,988.64
2018-03-03T01:05:19.339Z,988.63
2018-03-03T01:06:19.299Z,988.66
2018-03-03T01:07:19.818Z,988.65
2018-03-03T01:08:19.221Z,988.66
2018-03-03T01:09:19.190Z,988.66
2018-03-03T01:10:19.171Z,988.57
2018-03-03T01:11:19.100Z,988.65
2018-03-03T01:12:19.077Z,988.61
2018-03-03T01:13:19.015Z,988.62
2018-03-03T01:14:18.958Z,988.68
2018-03-03T01:15:18.914Z,988.64
2018-03-03T01:16:18.913Z,988.69
2018-03-03T01:17:18.855Z,988.68
2018-03-03T01:18:18.797Z,988.68
2018-03-03T01:19:18.734Z,988.59
2018-03-03T01:20:18.736Z,988.65
2018-03-03T01:21:18.657Z,988.61
2018-03-03T01:22:18.621Z,988.62
2018-03-03T01:23:18.570Z,988.47
2018-03-03T01:24:18.541Z,988.62
2018-03-03T01:25:18.515Z,988.54
2018-03-03T01:26:18.432Z,988.64
2018-03-03T01:27:18.396Z,988.63
2018-03-03T01:28:18.378Z,988.59
2018-03-03T01:29:18.339Z,988.59
2018-03-03T01:30:18.304Z,988.56
2018-03-03T01:31:18.212Z,988.54
2018-03-03T01:32:18.181Z,988.50
2018-03-03T01:33:18.167Z,988.39
2018-03-03T01:34:18.122Z,988.46
2018-03-03T01:35:18.046Z,988.46
2018-03-03T01:36:18.036Z,988.44
2018-03-03T01:37:17.985Z,988.42
2018-03-03T01:38:17.910Z,988.37
2018-03-03T01:39:17.896Z,988.46
2018-03-03T01:40:17.855Z,988.36
2018-03-03T01:41:17.806Z,988.40
2018-03-03T01:42:17.758Z,988.25
2018-03-03T01:43:17.692Z,988.36
2018-03-03T01:44:17.689Z,988.31
2018-03-03T01:45:17.605Z,988.39
2018-03-03T01:46:17.569Z,988.33
2018-03-03T01:47:17.566Z,988.27
2018-03-03T01:48:17.483Z,988.43
2018-03-03T01:49:17.456Z,988.35
2018-03-03T01:50:17.608Z,988.38
2018-03-03T01:51:18.814Z,988.40
2018-03-03T01:52:17.314Z,988.45
2018-03-03T01:53:17.284Z,988.31
2018-03-03T01:54:17.938Z,988.27
2018-03-03T01:55:17.172Z,988.33
2018-03-03T01:56:17.150Z,988.28
2018-03-03T01:57:17.106Z,988.32
2018-03-03T01:58:17.042Z,988.29
2018-03-03T01:59:17.039Z,988.30
2018-03-03T02:00:16.974Z,988.21
2018-03-03T02:01:16.927Z,988.23
2018-03-03T02:02:16.896Z,988.31
2018-03-03T02:03:16.853Z,988.21
2018-03-03T02:04:16.824Z,988.26
2018-03-03T02:05:16.772Z,988.33
2018-03-03T02:06:16.696Z,988.26
2018-03-03T02:07:16.652Z,988.26
2018-03-03T02:08:16.651Z,988.21
2018-03-03T02:09:16.600Z,988.19
2018-03-03T02:10:16.524Z,988.18
2018-03-03T02:11:16.548Z,988.26
2018-03-03T02:12:16.464Z,988.19
2018-03-03T02:13:16.411Z,988.21
2018-03-03T02:14:16.396Z,987.99
2018-03-03T02:15:16.347Z,988.05
2018-03-03T02:16:16.263Z,988.06
2018-03-03T02:17:16.220Z,988.09
2018-03-03T02:18:16.291Z,988.01
2018-03-03T02:19:16.227Z,988.03
2018-03-03T02:20:16.095Z,988.06
2018-03-03T02:21:16.046Z,988.04
2018-03-03T02:22:16.091Z,988.02
2018-03-03T02:23:15.988Z,988.09
2018-03-03T02:24:15.950Z,988.03
2018-03-03T02:25:15.881Z,988.09
2018-03-03T02:26:15.841Z,987.98
2018-03-03T02:27:15.812Z,988.00
2018-03-03T02:28:15.763Z,987.93
2018-03-03T02:29:15.736Z,988.04
2018-03-03T02:30:15.660Z,987.96
2018-03-03T02:31:15.621Z,987.90
2018-03-03T02:32:15.593Z,987.96
2018-03-03T02:33:15.527Z,987.92
2018-03-03T02:34:15.539Z,987.89
2018-03-03T02:35:15.452Z,987.87
2018-03-03T02:36:15.466Z,987.87
2018-03-03T02:37:15.376Z,987.82
2018-03-03T02:38:15.311Z,987.86
2018-03-03T02:39:15.318Z,987.74
2018-03-03T02:40:15.240Z,987.73
2018-03-03T02:41:15.232Z,987.75
2018-03-03T02:42:15.155Z,987.63
2018-03-03T02:43:15.094Z,987.72
2018-03-03T02:44:15.112Z,987.64
2018-03-03T02:45:15.012Z,987.56
2018-03-03T02:46:14.985Z,987.53
2018-03-03T02:47:14.947Z,987.53
2018-03-03T02:48:14.878Z,987.61
2018-03-03T02:49:14.858Z,987.45
2018-03-03T02:50:14.810Z,987.57
2018-03-03T02:51:14.780Z,987.57
2018-03-03T02:52:14.745Z,987.54
2018-03-03T02:53:14.701Z,987.47
2018-03-03T02:54:14.626Z,987.53
2018-03-03T02:55:14.607Z,987.56
2018-03-03T02:56:14.534Z,987.55
2018-03-03T02:57:14.495Z,987.55
2018-03-03T02:58:14.480Z,987.57
2018-03-03T02:59:14.408Z,987.59
2018-03-03T03:00:14.400Z,987.51
2018-03-03T03:01:14.411Z,987.50
2018-03-03T03:02:14.299Z,987.53
2018-03-03T03:03:14.251Z,987.55
2018-03-03T03:04:14.206Z,987.47
2018-03-03T03:05:14.184Z,987.52
2018-03-03T03:06:14.100Z,987.54
2018-03-03T03:07:14.106Z,987.49
2018-03-03T03:08:14.021Z,987.53
2018-03-03T03:09:14.011Z,987.50
2018-03-03T03:10:13.934Z,987.47
2018-03-03T03:11:13.902Z,987.49
2018-03-03T03:12:13.857Z,987.42
2018-03-03T03:13:13.799Z,987.54
2018-03-03T03:14:13.753Z,987.53
2018-03-03T03:15:13.711Z,987.56
2018-03-03T03:16:13.666Z,987.56
2018-03-03T03:17:13.626Z,987.56
2018-03-03T03:18:13.582Z,987.53
2018-03-03T03:19:13.538Z,987.53
2018-03-03T03:20:13.495Z,987.46
2018-03-03T03:21:13.451Z,987.44
2018-03-03T03:22:13.420Z,987.49
2018-03-03T03:23:13.364Z,987.50
2018-03-03T03:24:13.321Z,987.45
2018-03-03T03:25:13.279Z,987.36
2018-03-03T03:26:13.234Z,987.52
2018-03-03T03:27:13.213Z,987.49
2018-03-03T03:28:13.148Z,987.50
2018-03-03T03:29:13.105Z,987.50
2018-03-03T03:30:13.064Z,987.50
2018-03-03T03:31:13.020Z,987.42
2018-03-03T03:32:12.981Z,987.51
2018-03-03T03:33:12.934Z,987.45
2018-03-03T03:34:12.890Z,987.40
2018-03-03T03:35:12.850Z,987.36
2018-03-03T03:36:12.807Z,987.36
2018-03-03T03:37:12.762Z,987.34
2018-03-03T03:38:12.719Z,987.37
2018-03-03T03:39:12.673Z,987.44
2018-03-03T03:40:12.629Z,987.41
2018-03-03T03:41:12.585Z,987.40
2018-03-03T03:42:12.547Z,987.34
2018-03-03T03:43:12.499Z,987.28
2018-03-03T03:44:12.458Z,987.37
2018-03-03T03:45:12.413Z,987.33
2018-03-03T03:46:12.373Z,987.27
2018-03-03T03:47:12.327Z,987.34
2018-03-03T03:48:12.283Z,987.22
2018-03-03T03:49:12.240Z,987.30
2018-03-03T03:50:12.198Z,987.34
2018-03-03T03:51:12.154Z,987.25
2018-03-03T03:52:12.108Z,987.23
2018-03-03T03:53:12.067Z,987.24
2018-03-03T03:54:12.028Z,987.22
2018-03-03T03:55:11.981Z,987.16
2018-03-03T03:56:11.936Z,987.19
2018-03-03T03:57:11.897Z,987.17
2018-03-03T03:58:11.852Z,987.14
2018-03-03T03:59:11.809Z,987.13
2018-03-03T04:00:11.765Z,987.11
2018-03-03T04:01:11.728Z,987.08
2018-03-03T04:02:11.680Z,987.14
2018-03-03T04:03:11.635Z,987.20
2018-03-03T04:04:11.616Z,987.19
2018-03-03T04:05:11.550Z,987.22
2018-03-03T04:06:11.506Z,987.10
2018-03-03T04:07:11.463Z,987.10
2018-03-03T04:08:11.417Z,987.12
2018-03-03T04:09:11.376Z,987.07
2018-03-03T04:10:11.334Z,987.07
2018-03-03T04:11:11.291Z,987.10
2018-03-03T04:12:11.250Z,987.16
2018-03-03T04:13:11.207Z,987.10
2018-03-03T04:14:11.165Z,987.15
2018-03-03T04:15:11.119Z,987.05
2018-03-03T04:16:11.106Z,987.12
2018-03-03T04:17:11.034Z,987.09
2018-03-03T04:18:10.987Z,987.10
2018-03-03T04:19:10.981Z,987.10
2018-03-03T04:20:10.900Z,987.10
2018-03-03T04:21:10.859Z,987.10
2018-03-03T04:22:10.817Z,987.07
2018-03-03T04:23:10.774Z,987.06
2018-03-03T04:24:10.726Z,987.00
2018-03-03T04:25:10.688Z,987.08
2018-03-03T04:26:10.645Z,987.01
2018-03-03T04:27:10.600Z,987.14
2018-03-03T04:28:10.557Z,987.10
2018-03-03T04:29:10.517Z,987.11
2018-03-03T04:30:10.470Z,987.07
2018-03-03T04:31:10.429Z,987.12
2018-03-03T04:32:10.389Z,987.12
2018-03-03T04:33:10.340Z,987.10
2018-03-03T04:34:10.302Z,987.12
2018-03-03T04:35:10.301Z,987.11
2018-03-03T04:36:10.214Z,987.12
2018-03-03T04:37:10.170Z,987.10
2018-03-03T04:38:10.129Z,987.13
2018-03-03T04:39:10.084Z,987.13
2018-03-03T04:40:10.041Z,987.11
2018-03-03T04:41:09.998Z,987.09
2018-03-03T04:42:09.958Z,987.10
2018-03-03T04:43:09.913Z,986.99
2018-03-03T04:44:09.875Z,987.06
2018-03-03T04:45:09.826Z,986.97
2018-03-03T04:46:09.784Z,987.03
2018-03-03T04:47:09.740Z,987.07
2018-03-03T04:48:09.699Z,987.01
2018-03-03T04:49:09.832Z,986.95
2018-03-03T04:50:09.611Z,987.03
2018-03-03T04:51:09.568Z,987.09
2018-03-03T04:52:09.527Z,986.98
2018-03-03T04:53:09.485Z,986.99
2018-03-03T04:54:09.442Z,986.93
2018-03-03T04:55:09.395Z,986.96
2018-03-03T04:56:09.352Z,987.07
2018-03-03T04:57:09.308Z,986.97
2018-03-03T04:58:09.281Z,987.02
2018-03-03T04:59:09.223Z,986.97
2018-03-03T05:00:09.182Z,986.91
2018-03-03T05:01:09.136Z,986.99
2018-03-03T05:02:09.096Z,986.88
2018-03-03T05:03:09.049Z,986.87
2018-03-03T05:04:09.007Z,986.85
2018-03-03T05:05:08.967Z,986.91
2018-03-03T05:06:08.924Z,986.71
2018-03-03T05:07:08.879Z,986.83
2018-03-03T05:08:08.836Z,986.83
2018-03-03T05:09:08.794Z,986.75
2018-03-03T05:10:08.751Z,986.79
2018-03-03T05:11:08.713Z,986.77
2018-03-03T05:12:08.665Z,986.74
2018-03-03T05:13:08.626Z,986.68
2018-03-03T05:14:08.581Z,986.83
2018-03-03T05:15:08.537Z,986.80
2018-03-03T05:16:08.492Z,986.85
2018-03-03T05:17:08.449Z,986.74
2018-03-03T05:18:08.407Z,986.80
2018-03-03T05:19:08.364Z,986.78
2018-03-03T05:20:08.319Z,986.81
2018-03-03T05:21:08.279Z,986.88
2018-03-03T05:22:08.233Z,986.82
2018-03-03T05:23:08.192Z,986.84
2018-03-03T05:24:08.147Z,986.80
2018-03-03T05:25:08.108Z,986.79
2018-03-03T05:26:08.064Z,986.81
2018-03-03T05:27:08.021Z,986.76
2018-03-03T05:28:07.977Z,986.79
2018-03-03T05:29:07.933Z,986.85
2018-03-03T05:30:07.893Z,986.77
2018-03-03T05:31:07.849Z,986.73
2018-03-03T05:32:07.804Z,986.71
2018-03-03T05:33:07.763Z,986.72
2018-03-03T05:34:07.721Z,986.69
2018-03-03T05:35:07.675Z,986.68
2018-03-03T05:36:07.632Z,986.71
2018-03-03T05:37:07.591Z,986.66
2018-03-03T05:38:07.546Z,986.68
2018-03-03T05:39:07.504Z,986.67
2018-03-03T05:40:07.459Z,986.65
2018-03-03T05:41:07.417Z,986.73
2018-03-03T05:42:07.374Z,986.70
2018-03-03T05:43:07.330Z,986.70
2018-03-03T05:44:07.288Z,986.65
2018-03-03T05:45:07.248Z,986.70
2018-03-03T05:46:07.213Z,986.67
2018-03-03T05:47:07.161Z,986.66
2018-03-03T05:48:07.117Z,986.72
2018-03-03T05:49:07.076Z,986.72
2018-03-03T05:50:07.032Z,986.66
2018-03-03T05:51:06.989Z,986.73
2018-03-03T05:52:06.945Z,986.51
2018-03-03T05:53:06.903Z,986.64
2018-03-03T05:54:06.857Z,986.70
2018-03-03T05:55:06.815Z,986.73
2018-03-03T05:56:06.771Z,986.68
2018-03-03T05:57:06.731Z,986.69
2018-03-03T05:58:06.689Z,986.69
2018-03-03T05:59:06.646Z,986.74
2018-03-03T06:00:06.598Z,986.80
2018-03-03T06:01:06.557Z,986.78
2018-03-03T06:02:06.516Z,986.73
2018-03-03T06:03:06.471Z,986.69
2018-03-03T06:04:06.429Z,986.75
2018-03-03T06:05:06.386Z,986.66
2018-03-03T06:06:06.344Z,986.70
2018-03-03T06:07:06.300Z,986.65
2018-03-03T06:08:06.258Z,986.73
2018-03-03T06:09:06.214Z,986.75
2018-03-03T06:10:06.181Z,986.70
2018-03-03T06:11:06.127Z,986.79
2018-03-03T06:12:06.084Z,986.63
2018-03-03T06:13:06.328Z,986.67
2018-03-03T06:14:06.001Z,986.67
2018-03-03T06:15:05.955Z,986.66
2018-03-03T06:16:05.946Z,986.67
2018-03-03T06:17:05.869Z,986.78
2018-03-03T06:18:05.826Z,986.76
2018-03-03T06:19:05.783Z,986.72
2018-03-03T06:20:06.562Z,986.80
2018-03-03T06:21:05.742Z,986.78
2018-03-03T06:22:05.654Z,986.78
2018-03-03T06:23:05.644Z,986.77
2018-03-03T06:24:05.570Z,986.77
2018-03-03T06:25:05.530Z,986.75
2018-03-03T06:26:05.486Z,986.72
2018-03-03T06:27:05.443Z,986.74
2018-03-03T06:28:05.396Z,986.53
2018-03-03T06:29:05.354Z,986.68
2018-03-03T06:30:05.308Z,986.75
2018-03-03T06:31:05.266Z,986.78
2018-03-03T06:32:05.240Z,986.77
2018-03-03T06:33:05.181Z,986.71
2018-03-03T06:34:05.142Z,986.69
2018-03-03T06:35:05.098Z,986.71
2018-03-03T06:36:05.055Z,986.77
2018-03-03T06:37:05.010Z,986.73
2018-03-03T06:38:04.972Z,986.71
2018-03-03T06:39:04.924Z,986.77
2018-03-03T06:40:04.884Z,986.81
2018-03-03T06:41:04.841Z,986.80
2018-03-03T06:42:04.796Z,986.79
2018-03-03T06:43:04.752Z,986.71
2018-03-03T06:44:04.714Z,986.79
2018-03-03T06:45:04.667Z,986.78
2018-03-03T06:46:04.630Z,986.78
2018-03-03T06:47:04.588Z,986.82
2018-03-03T06:48:04.540Z,986.76
2018-03-03T06:49:04.496Z,986.67
2018-03-03T06:50:04.454Z,986.80
2018-03-03T06:51:04.410Z,986.80
2018-03-03T06:52:04.368Z,986.84
2018-03-03T06:53:04.325Z,986.88
2018-03-03T06:54:04.281Z,986.90
2018-03-03T06:55:04.237Z,986.91
2018-03-03T06:56:04.197Z,986.96
2018-03-03T06:57:04.158Z,986.98
2018-03-03T06:58:04.112Z,987.02
2018-03-03T06:59:04.068Z,987.03
2018-03-03T07:00:04.025Z,987.01
2018-03-03T07:01:04.007Z,987.07
2018-03-03T07:02:03.940Z,986.99
2018-03-03T07:03:03.898Z,986.98
2018-03-03T07:04:03.886Z,986.90
2018-03-03T07:05:03.811Z,986.99
2018-03-03T07:06:03.769Z,986.95
2018-03-03T07:07:03.725Z,987.01
2018-03-03T07:08:03.682Z,986.96
2018-03-03T07:09:03.642Z,987.00
2018-03-03T07:10:03.616Z,987.07
2018-03-03T07:11:03.562Z,987.04
2018-03-03T07:12:03.512Z,986.94
2018-03-03T07:13:03.472Z,986.97
2018-03-03T07:14:03.427Z,987.04
2018-03-03T07:15:03.386Z,986.96
2018-03-03T07:16:03.343Z,986.99
2018-03-03T07:17:03.300Z,987.05
2018-03-03T07:18:03.260Z,987.07
2018-03-03T07:19:03.213Z,986.95
2018-03-03T07:20:03.173Z,987.10
2018-03-03T07:21:03.128Z,987.06
2018-03-03T07:22:03.087Z,987.03
2018-03-03T07:23:03.045Z,987.02
2018-03-03T07:24:03.003Z,987.02
2018-03-03T07:25:02.961Z,987.08
2018-03-03T07:26:02.915Z,987.04
2018-03-03T07:27:02.874Z,987.03
2018-03-03T07:28:02.832Z,987.08
2018-03-03T07:29:02.793Z,987.01
2018-03-03T07:30:02.746Z,987.05
2018-03-03T07:31:02.707Z,987.01
2018-03-03T07:32:02.689Z,986.95
2018-03-03T07:33:02.623Z,987.05
2018-03-03T07:34:02.577Z,986.96
2018-03-03T07:35:02.536Z,987.15
2018-03-03T07:36:02.491Z,987.10
2018-03-03T07:37:02.473Z,987.11
2018-03-03T07:38:02.407Z,987.05
2018-03-03T07:39:02.406Z,987.05
2018-03-03T07:40:02.323Z,987.11
2018-03-03T07:41:02.370Z,987.04
2018-03-03T07:42:02.239Z,987.06
2018-03-03T07:43:02.194Z,986.98
2018-03-03T07:44:02.162Z,987.02
2018-03-03T07:45:02.109Z,987.08
2018-03-03T07:46:02.068Z,987.08
2018-03-03T07:47:02.028Z,987.15
2018-03-03T07:48:01.985Z,987.15
2018-03-03T07:49:01.948Z,987.21
2018-03-03T07:50:01.898Z,987.08
2018-03-03T07:51:01.859Z,987.17
2018-03-03T07:52:01.814Z,987.08
2018-03-03T07:53:01.774Z,987.10
2018-03-03T07:54:01.732Z,987.13
2018-03-03T07:55:01.688Z,987.12
2018-03-03T07:56:01.644Z,987.27
2018-03-03T07:57:01.604Z,987.16
2018-03-03T07:58:01.564Z,987.21
2018-03-03T07:59:01.519Z,987.17
2018-03-03T08:00:01.478Z,987.22
2018-03-03T08:01:01.436Z,987.21
2018-03-03T08:02:01.415Z,987.21
2018-03-03T08:03:01.383Z,987.19
2018-03-03T08:04:01.315Z,987.16
2018-03-03T08:05:01.299Z,987.20
2018-03-03T08:06:01.673Z,987.16
2018-03-03T08:07:01.185Z,987.19
2018-03-03T08:08:01.188Z,987.12
2018-03-03T08:09:01.101Z,987.15
2018-03-03T08:10:01.060Z,987.20
2018-03-03T08:11:01.014Z,987.19
2018-03-03T08:12:00.976Z,987.14
2018-03-03T08:13:00.932Z,987.17
2018-03-03T08:14:00.890Z,987.13
2018-03-03T08:15:00.873Z,987.11
2018-03-03T08:16:00.809Z,987.15
2018-03-03T08:17:00.764Z,987.21
2018-03-03T08:18:00.728Z,987.16
2018-03-03T08:19:00.679Z,987.16
2018-03-03T08:20:00.638Z,987.15
2018-03-03T08:21:00.823Z,987.17
2018-03-03T08:22:00.556Z,987.19
2018-03-03T08:23:00.514Z,987.21
2018-03-03T08:24:00.471Z,987.14
2018-03-03T08:25:00.432Z,987.16
2018-03-03T08:26:00.388Z,987.11
2018-03-03T08:27:00.350Z,987.12
2018-03-03T08:28:00.308Z,987.18
2018-03-03T08:29:00.284Z,987.11
2018-03-03T08:30:00.224Z,987.12
2018-03-03T08:31:00.183Z,987.23
2018-03-03T08:32:00.138Z,987.14
2018-03-03T08:33:00.100Z,987.23
2018-03-03T08:34:00.057Z,987.20
2018-03-03T08:35:00.020Z,987.25
2018-03-03T08:35:59.973Z,987.34
2018-03-03T08:36:59.934Z,987.39
2018-03-03T08:37:59.894Z,987.42
2018-03-03T08:38:59.856Z,987.35
2018-03-03T08:39:59.809Z,987.26
2018-03-03T08:40:59.768Z,987.29
2018-03-03T08:41:59.726Z,987.40
2018-03-03T08:42:59.686Z,987.38
2018-03-03T08:43:59.647Z,987.40
2018-03-03T08:44:59.605Z,987.35
2018-03-03T08:45:59.566Z,987.43
2018-03-03T08:46:59.554Z,987.47
2018-03-03T08:47:59.486Z,987.41
2018-03-03T08:48:59.441Z,987.45
2018-03-03T08:49:59.407Z,987.44
2018-03-03T08:50:59.360Z,987.40
2018-03-03T08:51:59.326Z,987.46
2018-03-03T08:52:59.288Z,987.38
2018-03-03T08:53:59.243Z,987.43
2018-03-03T08:54:59.204Z,987.41
2018-03-03T08:55:59.167Z,987.41
2018-03-03T08:56:59.128Z,987.38
2018-03-03T08:57:59.091Z,987.27
2018-03-03T08:58:59.050Z,987.30
2018-03-03T08:59:59.012Z,987.32
2018-03-03T09:00:58.974Z,987.28
2018-03-03T09:01:58.936Z,987.27
2018-03-03T09:02:58.899Z,987.38
2018-03-03T09:03:58.862Z,987.30
2018-03-03T09:04:58.821Z,987.37
2018-03-03T09:05:58.784Z,987.31
2018-03-03T09:06:58.745Z,987.33
2018-03-03T09:07:58.709Z,987.27
2018-03-03T09:08:58.679Z,987.29
2018-03-03T09:09:58.651Z,987.27
2018-03-03T09:10:58.600Z,987.46
2018-03-03T09:11:58.562Z,987.49
2018-03-03T09:12:58.523Z,987.36
2018-03-03T09:13:58.485Z,987.37
2018-03-03T09:14:58.449Z,987.41
2018-03-03T09:15:58.409Z,987.39
2018-03-03T09:16:58.375Z,987.46
2018-03-03T09:17:58.338Z,987.45
2018-03-03T09:18:58.312Z,987.44
2018-03-03T09:19:58.262Z,987.44
2018-03-03T09:20:58.226Z,987.54
2018-03-03T09:21:58.194Z,987.53
2018-03-03T09:22:58.155Z,987.53
2018-03-03T09:23:58.116Z,987.52
2018-03-03T09:24:58.079Z,987.54
2018-03-03T09:25:58.042Z,987.53
2018-03-03T09:26:58.750Z,987.45
2018-03-03T09:27:57.972Z,987.68
2018-03-03T09:28:57.941Z,987.60
2018-03-03T09:29:57.898Z,987.57
2018-03-03T09:30:57.865Z,987.64
2018-03-03T09:31:57.831Z,987.53
2018-03-03T09:32:57.832Z,987.55
2018-03-03T09:33:57.757Z,987.65
2018-03-03T09:34:57.727Z,987.58
2018-03-03T09:35:57.690Z,987.56
2018-03-03T09:36:57.652Z,987.70
2018-03-03T09:37:57.625Z,987.53
2018-03-03T09:38:57.586Z,987.58
2018-03-03T09:39:57.564Z,987.59
2018-03-03T09:40:57.517Z,987.63
2018-03-03T09:41:57.482Z,987.61
2018-03-03T09:42:57.450Z,987.62
2018-03-03T09:43:57.414Z,987.53
2018-03-03T09:44:57.380Z,987.64
2018-03-03T09:45:57.348Z,987.72
2018-03-03T09:46:57.313Z,987.70
2018-03-03T09:47:57.284Z,987.72
2018-03-03T09:48:57.248Z,987.69
2018-03-03T09:49:57.215Z,987.59
2018-03-03T09:50:57.190Z,987.69
2018-03-03T09:51:57.150Z,987.66
2018-03-03T09:52:57.120Z,987.75
2018-03-03T09:53:57.086Z,987.54
2018-03-03T09:54:57.055Z,987.74
2018-03-03T09:55:57.024Z,987.58
2018-03-03T09:56:56.992Z,987.56
2018-03-03T09:57:56.966Z,987.65
2018-03-03T09:58:56.930Z,987.58
2018-03-03T09:59:56.894Z,987.60
2018-03-03T10:00:56.863Z,987.70
2018-03-03T10:02:05.924Z,987.66
2018-03-03T10:02:56.802Z,987.46
2018-03-03T10:03:56.770Z,987.57
2018-03-03T10:04:56.734Z,987.49
2018-03-03T10:05:56.703Z,987.50
2018-03-03T10:06:56.672Z,987.61
2018-03-03T10:07:56.640Z,987.56
2018-03-03T10:08:56.606Z,987.59
2018-03-03T10:09:56.579Z,987.53
2018-03-03T10:10:56.545Z,987.56
2018-03-03T10:11:56.513Z,987.60
2018-03-03T10:12:56.483Z,987.59
2018-03-03T10:13:56.451Z,987.73
2018-03-03T10:14:56.416Z,987.73
2018-03-03T10:15:56.386Z,987.61
2018-03-03T10:16:56.354Z,987.60
2018-03-03T10:17:56.321Z,987.55
2018-03-03T10:18:56.291Z,987.59
2018-03-03T10:19:56.260Z,987.60
2018-03-03T10:20:56.248Z,987.58
2018-03-03T10:21:56.230Z,987.49
2018-03-03T10:22:56.163Z,987.58
2018-03-03T10:23:56.132Z,987.63
2018-03-03T10:24:56.101Z,987.53
2018-03-03T10:25:56.073Z,987.51
2018-03-03T10:26:56.036Z,987.49
2018-03-03T10:27:56.003Z,987.46
2018-03-03T10:28:55.997Z,987.47
2018-03-03T10:29:55.942Z,987.43
2018-03-03T10:30:55.911Z,987.47
2018-03-03T10:31:55.879Z,987.39
2018-03-03T10:32:55.850Z,987.42
2018-03-03T10:33:55.812Z,987.35
2018-03-03T10:34:55.780Z,987.38
2018-03-03T10:35:55.750Z,987.36
2018-03-03T10:36:55.754Z,987.34
2018-03-03T10:37:55.682Z,987.30
2018-03-03T10:38:55.652Z,987.34
2018-03-03T10:39:55.618Z,987.38
2018-03-03T10:40:55.586Z,987.37
2018-03-03T10:41:55.550Z,987.36
2018-03-03T10:42:55.515Z,987.48
2018-03-03T10:43:55.493Z,987.32
2018-03-03T10:44:55.449Z,987.34
2018-03-03T10:45:55.415Z,987.42
2018-03-03T10:46:55.597Z,987.41
2018-03-03T10:47:55.349Z,987.41
2018-03-03T10:48:55.314Z,987.42
2018-03-03T10:49:55.280Z,987.35
2018-03-03T10:50:55.245Z,987.38
2018-03-03T10:51:55.210Z,987.44
2018-03-03T10:52:55.177Z,987.39
2018-03-03T10:53:55.140Z,987.38
2018-03-03T10:54:55.108Z,987.44
2018-03-03T10:55:55.073Z,987.43
2018-03-03T10:56:55.037Z,987.43
2018-03-03T10:57:55.004Z,987.48
2018-03-03T10:58:54.966Z,987.51
2018-03-03T10:59:54.934Z,987.51
2018-03-03T11:00:54.896Z,987.46
2018-03-03T11:01:54.864Z,987.44
2018-03-03T11:02:54.828Z,987.41
2018-03-03T11:03:54.796Z,987.43
2018-03-03T11:04:54.956Z,987.30
2018-03-03T11:05:54.727Z,987.41
2018-03-03T11:06:54.688Z,987.44
2018-03-03T11:07:54.654Z,987.44
2018-03-03T11:08:54.625Z,987.43
2018-03-03T11:09:54.589Z,987.45
2018-03-03T11:10:54.542Z,987.52
2018-03-03T11:11:54.513Z,987.36
2018-03-03T11:12:54.478Z,987.41
2018-03-03T11:13:54.441Z,987.39
2018-03-03T11:14:54.405Z,987.48
2018-03-03T11:15:54.371Z,987.35
2018-03-03T11:16:54.334Z,987.36
2018-03-03T11:17:54.298Z,987.36
2018-03-03T11:18:54.259Z,987.36
2018-03-03T11:19:54.224Z,987.35
2018-03-03T11:20:54.188Z,987.38
2018-03-03T11:21:54.152Z,987.35
2018-03-03T11:22:54.118Z,987.33
2018-03-03T11:23:54.081Z,987.35
2018-03-03T11:24:54.043Z,987.32
2018-03-03T11:25:54.008Z,987.35
2018-03-03T11:26:53.971Z,987.34
2018-03-03T11:27:53.935Z,987.22
2018-03-03T11:28:53.897Z,987.37
2018-03-03T11:29:53.868Z,987.35
2018-03-03T11:30:53.831Z,987.35
2018-03-03T11:31:53.798Z,987.31
2018-03-03T11:32:53.761Z,987.31
2018-03-03T11:33:53.724Z,987.30
2018-03-03T11:34:53.946Z,987.26
2018-03-03T11:35:53.653Z,987.32
2018-03-03T11:36:53.620Z,987.29
2018-03-03T11:37:53.586Z,987.34
2018-03-03T11:38:53.547Z,987.31
2018-03-03T11:39:53.514Z,987.31
2018-03-03T11:40:53.478Z,987.22
2018-03-03T11:41:53.478Z,987.27
2018-03-03T11:42:53.408Z,987.25
2018-03-03T11:43:53.373Z,987.38
2018-03-03T11:44:53.333Z,987.24
2018-03-03T11:45:53.297Z,987.37
2018-03-03T11:46:53.266Z,987.41
2018-03-03T11:47:53.224Z,987.26
2018-03-03T11:48:53.192Z,987.39
2018-03-03T11:49:53.153Z,987.36
2018-03-03T11:50:53.116Z,987.33
2018-03-03T11:51:53.081Z,987.29
2018-03-03T11:52:53.046Z,987.22
2018-03-03T11:53:53.034Z,987.31
2018-03-03T11:54:52.974Z,987.22
2018-03-03T11:55:52.935Z,987.21
2018-03-03T11:56:52.898Z,987.27
2018-03-03T11:57:52.866Z,987.35
2018-03-03T11:58:52.826Z,987.30
2018-03-03T11:59:52.792Z,987.32
2018-03-03T12:00:52.754Z,987.32
2018-03-03T12:01:52.717Z,987.25
2018-03-03T12:02:52.680Z,987.31
2018-03-03T12:03:52.645Z,987.21
2018-03-03T12:04:52.608Z,987.25
2018-03-03T12:05:52.574Z,987.19
2018-03-03T12:06:52.534Z,987.33
2018-03-03T12:07:52.498Z,987.40
2018-03-03T12:08:52.462Z,987.34
2018-03-03T12:09:52.423Z,987.44
2018-03-03T12:10:52.385Z,987.36
2018-03-03T12:11:52.348Z,987.44
2018-03-03T12:12:52.313Z,987.37
2018-03-03T12:13:52.275Z,987.35
2018-03-03T12:14:52.236Z,987.41
2018-03-03T12:15:52.205Z,987.35
2018-03-03T12:16:52.158Z,987.47
2018-03-03T12:17:52.121Z,987.31
2018-03-03T12:18:52.084Z,987.36
2018-03-03T12:19:52.050Z,987.39
2018-03-03T12:20:52.010Z,987.36
2018-03-03T12:21:51.968Z,987.32
2018-03-03T12:22:51.927Z,987.39
2018-03-03T12:23:51.896Z,987.48
2018-03-03T12:24:51.858Z,987.46
2018-03-03T12:25:51.817Z,987.46
2018-03-03T12:26:51.780Z,987.55
2018-03-03T12:27:51.981Z,987.56